Time;durP1;ratioP1;P1;durP2;ratioP2;P2;SDS_P1;SDS_P2;PMS_P1;PMS_P2;Temp;Humidity;BMP_temperature;BMP_pressure;BME280_temperature;BME280_humidity;BME280_pressure;Samples;Min_cycle;Max_cycle;Signal;HPM_P1;HPM_P2
2023/02/07 00:00:12;;;;;;;;;;;;;;;;;;4978225;28;19913;-72
2023/02/07 00:02:38;;;;;;;;;;;;;;;;;;4961737;28;20407;-72
2023/02/07 00:05:04;;;;;;;;;;;;;;;;;;4965810;28;19917;-72
2023/02/07 00:07:30;;;;;;;;;;;;;;;;;;4965266;28;19913;-73
2023/02/07 00:09:56;;;;;;;;;;;;;;;;;;4967381;28;19913;-73
2023/02/07 00:12:22;;;;;;;;;;;;;;;;;;4977521;28;21060;-73
2023/02/07 00:14:48;;;;;;;;;;;;;;;;;;4975934;28;19917;-73
2023/02/07 00:17:14;;;;;;;;;;;;;;;;;;4977669;28;20355;-72
2023/02/07 00:19:40;;;;;;;;;;;;;;;;;;4962608;28;20374;-73
2023/02/07 00:22:06;;;;;;;;;;;;;;;;;;4973283;28;19913;-73
2023/02/07 00:24:32;;;;;;;;;;;;;;;;;;4981518;28;19924;-73
2023/02/07 00:26:58;;;;;;;;;;;;;;;;;;4984756;28;19972;-73
2023/02/07 00:29:24;;;;;;;;;;;;;;;;;;4961345;28;20374;-73
2023/02/07 00:31:50;;;;;;;;;;;;;;;;;;4966595;28;20119;-73
2023/02/07 00:34:17;;;;;;;;;;;;;;;;;;4981955;28;19956;-73
2023/02/07 00:36:43;;;;;;;;;;;;;;;;;;4983497;28;19909;-73
2023/02/07 00:39:09;;;;;;;;;;;;;;;;;;4977036;28;19918;-73
2023/02/07 00:41:35;;;;;;;;;;;;;;;;;;4983358;28;19916;-73
2023/02/07 00:44:01;;;;;;;;;;;;;;;;;;4983761;28;20780;-73
2023/02/07 00:46:30;;;;;;;;;;;;;;;;;;4955086;28;19922;-72
2023/02/07 00:48:56;;;;;;;;;;;;;;;;;;4985087;28;19913;-73
2023/02/07 00:51:26;;;;;;;;;;;;;;;;;;4982417;28;19918;-72
2023/02/07 00:53:53;;;;;;;;;;;;;;;;;;4978398;28;19919;-73
2023/02/07 00:56:19;;;;;;;;;;;;;;;;;;4968093;28;19961;-73
2023/02/07 00:58:45;;;;;;;;;;;;;;;;;;4981975;28;20636;-73
2023/02/07 01:01:11;;;;;;;;;;;;;;;;;;4979094;28;19981;-73
2023/02/07 01:03:39;;;;;;;;;;;;;;;;;;4963922;28;19968;-73
2023/02/07 01:06:06;;;;;;;;;;;;;;;;;;4980747;28;19995;-72
2023/02/07 01:08:33;;;;;;;;;;;;;;;;;;4970609;28;19920;-72
2023/02/07 01:10:59;;;;;;;;;;;;;;;;;;4960839;28;19913;-73
2023/02/07 01:13:25;;;;;;;;;;;;;;;;;;4977138;28;19968;-73
2023/02/07 01:15:51;;;;;;;;;;;;;;;;;;5282999;23;20336;-69
2023/02/07 01:18:17;;;;;;;;;;;;;;;;;;4963280;28;19936;-69
2023/02/07 01:20:43;;;;;;;;;;;;;;;;;;4986182;28;19917;-72
2023/02/07 01:23:10;;;;;;;;;;;;;;;;;;4983857;28;19921;-71
2023/02/07 01:25:54;;;;;;;;;;;;;;;;;;4985543;28;20023;-71
2023/02/07 01:28:23;;;;;;;;;;;;;;;;;;4981734;28;19924;-70
2023/02/07 01:30:49;;;;;;;;;;;;;;;;;;4962837;28;20456;-72
2023/02/07 01:33:15;;;;;;;;;;;;;;;;;;4980854;28;19914;-71
2023/02/07 01:35:45;;;;;;;;;;;;;;;;;;4964074;28;20616;-70
2023/02/07 01:38:11;;;;;;;;;;;;;;;;;;4957857;28;20265;-71
2023/02/07 01:40:37;;;;;;;;;;;;;;;;;;4963206;28;19913;-71
2023/02/07 01:45:48;;;;;;;;;;;;;;;;;;4979029;28;19944;-70
2023/02/07 01:48:14;;;;;;;;;;;;;;;;;;4978520;28;20383;-70
2023/02/07 01:50:39;;;;;;;;;;;;;;;;;;4959411;28;19910;-71
2023/02/07 01:53:05;;;;;;;;;;;;;;;;;;4978187;28;20518;-70
2023/02/07 01:55:31;;;;;;;;;;;;;;;;;;4978788;28;19909;-69
2023/02/07 01:57:57;;;;;;;;;;;;;;;;;;4961752;28;19917;-70
2023/02/07 02:00:27;;;;;;;;;;;;;;;;;;4960679;28;19913;-70
2023/02/07 02:02:53;;;;;;;;;;;;;;;;;;4961529;28;19922;-70
2023/02/07 02:05:19;;;;;;;;;;;;;;;;;;4974993;28;19971;-70
2023/02/07 02:07:45;;;;;;;;;;;;;;;;;;4976372;28;19937;-70
2023/02/07 02:10:11;;;;;;;;;;;;;;;;;;4960636;28;19913;-70
2023/02/07 02:12:37;;;;;;;;;;;;;;;;;;4979442;28;19980;-69
2023/02/07 02:15:03;;;;;;;;;;;;;;;;;;4958206;28;19960;-70
2023/02/07 02:17:29;;;;;;;;;;;;;;;;;;4965220;28;20100;-70
2023/02/07 02:19:55;;;;;;;;;;;;;;;;;;4984804;28;20081;-70
2023/02/07 02:22:21;;;;;;;;;;;;;;;;;;4960387;28;20723;-70
2023/02/07 02:24:47;;;;;;;;;;;;;;;;;;4980325;28;20472;-70
2023/02/07 02:27:16;;;;;;;;;;;;;;;;;;4981807;28;20328;-70
2023/02/07 02:29:41;;;;;;;;;;;;;;;;;;4984120;28;19956;-69
2023/02/07 02:32:08;;;;;;;;;;;;;;;;;;4981094;28;20414;-69
2023/02/07 02:34:34;;;;;;;;;;;;;;;;;;4982904;28;19944;-70
2023/02/07 02:37:00;;;;;;;;;;;;;;;;;;4984180;28;19944;-70
2023/02/07 02:39:27;;;;;;;;;;;;;;;;;;4962369;28;19983;-70
2023/02/07 02:41:53;;;;;;;;;;;;;;;;;;4965256;28;20378;-70
2023/02/07 02:44:19;;;;;;;;;;;;;;;;;;4982709;28;19917;-70
2023/02/07 02:46:45;;;;;;;;;;;;;;;;;;4981047;28;19951;-71
2023/02/07 02:49:11;;;;;;;;;;;;;;;;;;4960160;28;19929;-70
2023/02/07 02:51:37;;;;;;;;;;;;;;;;;;4985429;28;20016;-70
2023/02/07 02:54:03;;;;;;;;;;;;;;;;;;4963006;28;19913;-70
2023/02/07 02:56:29;;;;;;;;;;;;;;;;;;4963433;28;19946;-69
2023/02/07 02:58:55;;;;;;;;;;;;;;;;;;4983825;28;20356;-70
2023/02/07 03:01:21;;;;;;;;;;;;;;;;;;4981538;28;19979;-70
2023/02/07 03:03:49;;;;;;;;;;;;;;;;;;4985376;28;19913;-70
2023/02/07 03:06:15;;;;;;;;;;;;;;;;;;4983979;28;20303;-70
2023/02/07 03:08:41;;;;;;;;;;;;;;;;;;4969687;28;19952;-70
2023/02/07 03:11:07;;;;;;;;;;;;;;;;;;4954707;28;20046;-69
2023/02/07 03:13:33;;;;;;;;;;;;;;;;;;4987629;28;19913;-72
2023/02/07 03:15:59;;;;;;;;;;;;;;;;;;4983264;28;19935;-70
2023/02/07 03:18:25;;;;;;;;;;;;;;;;;;4983736;28;19917;-69
2023/02/07 03:20:51;;;;;;;;;;;;;;;;;;4968483;28;19925;-70
2023/02/07 03:23:17;;;;;;;;;;;;;;;;;;4984187;28;19920;-70
2023/02/07 03:25:43;;;;;;;;;;;;;;;;;;4986592;28;19924;-70
2023/02/07 03:28:09;;;;;;;;;;;;;;;;;;4983956;28;19913;-70
2023/02/07 03:30:35;;;;;;;;;;;;;;;;;;4988196;28;19963;-70
2023/02/07 03:33:08;;;;;;;;;;;;;;;;;;4986458;28;20241;-70
2023/02/07 03:35:37;;;;;;;;;;;;;;;;;;4970463;28;20350;-70
2023/02/07 03:38:04;;;;;;;;;;;;;;;;;;4967714;28;19913;-70
2023/02/07 03:40:30;;;;;;;;;;;;;;;;;;4983783;28;19920;-70
2023/02/07 03:42:56;;;;;;;;;;;;;;;;;;4970729;28;19917;-70
2023/02/07 03:45:22;;;;;;;;;;;;;;;;;;4965452;28;21300;-70
2023/02/07 03:47:48;;;;;;;;;;;;;;;;;;4988369;28;19913;-70
2023/02/07 03:50:17;;;;;;;;;;;;;;;;;;4967267;28;19948;-72
2023/02/07 03:52:43;;;;;;;;;;;;;;;;;;4985200;28;19913;-71
2023/02/07 03:55:09;;;;;;;;;;;;;;;;;;4964819;28;19925;-71
2023/02/07 03:57:35;;;;;;;;;;;;;;;;;;4982305;28;19920;-71
2023/02/07 04:00:02;;;;;;;;;;;;;;;;;;4966141;28;20321;-71
2023/02/07 04:02:28;;;;;;;;;;;;;;;;;;4968551;28;20003;-72
2023/02/07 04:04:54;;;;;;;;;;;;;;;;;;4985709;28;19921;-71
2023/02/07 04:07:19;;;;;;;;;;;;;;;;;;4983772;28;20011;-71
2023/02/07 04:09:45;;;;;;;;;;;;;;;;;;4986329;28;20462;-72
2023/02/07 04:12:12;;;;;;;;;;;;;;;;;;4984431;28;19986;-71
2023/02/07 04:14:37;;;;;;;;;;;;;;;;;;4986992;28;19917;-71
2023/02/07 04:17:04;;;;;;;;;;;;;;;;;;4963461;28;19976;-71
2023/02/07 04:19:30;;;;;;;;;;;;;;;;;;4985020;28;20020;-71
2023/02/07 04:21:56;;;;;;;;;;;;;;;;;;4984900;28;19913;-71
2023/02/07 04:24:22;;;;;;;;;;;;;;;;;;4981981;28;22263;-71
2023/02/07 04:26:48;;;;;;;;;;;;;;;;;;4968180;28;20162;-71
2023/02/07 04:29:14;;;;;;;;;;;;;;;;;;4968009;28;19920;-71
2023/02/07 04:31:41;;;;;;;;;;;;;;;;;;4982468;28;20564;-72
2023/02/07 04:34:08;;;;;;;;;;;;;;;;;;4979437;28;19956;-71
2023/02/07 04:36:34;;;;;;;;;;;;;;;;;;4984975;28;19913;-71
2023/02/07 04:39:00;;;;;;;;;;;;;;;;;;4984831;28;19917;-71
2023/02/07 04:41:26;;;;;;;;;;;;;;;;;;4983797;28;19960;-72
2023/02/07 04:43:52;;;;;;;;;;;;;;;;;;4983718;28;19913;-72
2023/02/07 04:46:18;;;;;;;;;;;;;;;;;;4980557;28;19932;-72
2023/02/07 04:48:47;;;;;;;;;;;;;;;;;;4982384;28;19917;-71
2023/02/07 04:51:13;;;;;;;;;;;;;;;;;;4967319;28;19924;-71
2023/02/07 04:53:39;;;;;;;;;;;;;;;;;;4968351;28;19924;-71
2023/02/07 04:56:05;;;;;;;;;;;;;;;;;;4984087;28;19987;-71
2023/02/07 04:58:31;;;;;;;;;;;;;;;;;;4984913;28;20710;-71
2023/02/07 05:00:57;;;;;;;;;;;;;;;;;;4964641;28;19917;-71
2023/02/07 05:03:23;;;;;;;;;;;;;;;;;;4964834;28;19925;-71
2023/02/07 05:05:49;;;;;;;;;;;;;;;;;;4965595;28;19918;-71
2023/02/07 05:08:15;;;;;;;;;;;;;;;;;;4981705;28;19925;-72
2023/02/07 05:10:41;;;;;;;;;;;;;;;;;;4966606;28;19920;-71
2023/02/07 05:13:07;;;;;;;;;;;;;;;;;;4966867;28;20219;-71
2023/02/07 05:15:33;;;;;;;;;;;;;;;;;;4984071;28;20226;-71
2023/02/07 05:18:00;;;;;;;;;;;;;;;;;;4985655;28;19918;-71
2023/02/07 05:20:26;;;;;;;;;;;;;;;;;;4982066;28;19917;-71
2023/02/07 05:22:52;;;;;;;;;;;;;;;;;;4985124;28;20020;-71
2023/02/07 05:25:18;;;;;;;;;;;;;;;;;;4982865;28;19923;-71
2023/02/07 05:27:44;;;;;;;;;;;;;;;;;;4984174;28;20351;-71
2023/02/07 05:30:10;;;;;;;;;;;;;;;;;;4965492;28;20516;-71
2023/02/07 05:35:21;;;;;;;;;;;;;;;;;;4981990;28;20002;-71
2023/02/07 05:37:46;;;;;;;;;;;;;;;;;;4984533;28;19917;-71
2023/02/07 05:40:12;;;;;;;;;;;;;;;;;;4984780;28;20840;-72
2023/02/07 05:42:39;;;;;;;;;;;;;;;;;;4983899;28;20284;-71
2023/02/07 05:45:05;;;;;;;;;;;;;;;;;;4963543;28;19917;-71
2023/02/07 05:47:31;;;;;;;;;;;;;;;;;;4966856;28;19920;-70
2023/02/07 05:49:57;;;;;;;;;;;;;;;;;;4964701;28;19925;-70
2023/02/07 05:52:23;;;;;;;;;;;;;;;;;;4979126;28;19992;-70
2023/02/07 05:54:49;;;;;;;;;;;;;;;;;;4967198;28;19917;-70
2023/02/07 05:57:15;;;;;;;;;;;;;;;;;;4981540;28;20342;-70
2023/02/07 05:59:41;;;;;;;;;;;;;;;;;;4983998;28;19956;-70
2023/02/07 06:02:07;;;;;;;;;;;;;;;;;;4983998;28;20383;-71
2023/02/07 06:04:33;;;;;;;;;;;;;;;;;;4984178;28;19997;-70
2023/02/07 06:06:58;;;;;;;;;;;;;;;;;;4984041;28;19997;-70
2023/02/07 06:09:24;;;;;;;;;;;;;;;;;;4961595;28;20503;-71
2023/02/07 06:11:50;;;;;;;;;;;;;;;;;;4965950;28;20104;-70
2023/02/07 06:14:17;;;;;;;;;;;;;;;;;;4979649;28;20279;-71
2023/02/07 06:16:43;;;;;;;;;;;;;;;;;;4981886;28;19943;-71
2023/02/07 06:19:09;;;;;;;;;;;;;;;;;;4981584;28;19953;-70
2023/02/07 06:21:35;;;;;;;;;;;;;;;;;;4983783;28;19920;-71
2023/02/07 06:24:02;;;;;;;;;;;;;;;;;;4965220;28;20356;-71
2023/02/07 06:26:28;;;;;;;;;;;;;;;;;;4967767;28;20023;-71
2023/02/07 06:28:54;;;;;;;;;;;;;;;;;;4964841;28;20438;-71
2023/02/07 06:31:20;;;;;;;;;;;;;;;;;;4980292;28;20023;-71
2023/02/07 06:33:46;;;;;;;;;;;;;;;;;;4981240;28;19945;-71
2023/02/07 06:36:12;;;;;;;;;;;;;;;;;;4982325;28;19940;-71
2023/02/07 06:38:38;;;;;;;;;;;;;;;;;;4982449;28;20450;-70
2023/02/07 06:41:04;;;;;;;;;;;;;;;;;;4981037;28;20075;-70
2023/02/07 06:43:30;;;;;;;;;;;;;;;;;;4968268;28;20749;-72
2023/02/07 06:45:56;;;;;;;;;;;;;;;;;;4966190;28;19921;-71
2023/02/07 06:48:22;;;;;;;;;;;;;;;;;;4979985;28;20704;-70
2023/02/07 06:50:48;;;;;;;;;;;;;;;;;;4966584;28;19920;-70
2023/02/07 06:53:14;;;;;;;;;;;;;;;;;;4980053;28;20279;-71
2023/02/07 06:55:40;;;;;;;;;;;;;;;;;;4965456;28;20008;-70
2023/02/07 06:58:06;;;;;;;;;;;;;;;;;;4964744;28;19913;-71
2023/02/07 07:00:32;;;;;;;;;;;;;;;;;;4966486;28;20447;-70
2023/02/07 07:02:59;;;;;;;;;;;;;;;;;;4983332;28;19913;-70
2023/02/07 07:05:25;;;;;;;;;;;;;;;;;;4961641;28;20402;-70
2023/02/07 07:07:51;;;;;;;;;;;;;;;;;;4965899;28;20273;-70
2023/02/07 07:10:17;;;;;;;;;;;;;;;;;;4962329;28;19932;-70
2023/02/07 07:12:43;;;;;;;;;;;;;;;;;;4963225;28;19917;-70
2023/02/07 07:15:09;;;;;;;;;;;;;;;;;;4980696;28;20375;-70
2023/02/07 07:17:35;;;;;;;;;;;;;;;;;;4982502;28;19956;-70
2023/02/07 07:20:02;;;;;;;;;;;;;;;;;;4982780;28;20271;-70
2023/02/07 07:22:29;;;;;;;;;;;;;;;;;;4985423;28;19913;-70
2023/02/07 07:24:54;;;;;;;;;;;;;;;;;;4979635;28;20365;-71
2023/02/07 07:27:20;;;;;;;;;;;;;;;;;;4980178;28;19917;-70
2023/02/07 07:29:46;;;;;;;;;;;;;;;;;;4982337;28;20348;-71
2023/02/07 07:32:12;;;;;;;;;;;;;;;;;;4961602;28;20719;-71
2023/02/07 07:34:38;;;;;;;;;;;;;;;;;;4982952;28;20217;-70
2023/02/07 07:37:04;;;;;;;;;;;;;;;;;;4978968;28;20000;-70
2023/02/07 07:39:30;;;;;;;;;;;;;;;;;;4982550;28;20274;-70
2023/02/07 07:41:56;;;;;;;;;;;;;;;;;;4982796;28;19913;-70
2023/02/07 07:44:22;;;;;;;;;;;;;;;;;;4964373;28;20619;-70
2023/02/07 07:46:49;;;;;;;;;;;;;;;;;;4981982;28;19944;-70
2023/02/07 07:49:15;;;;;;;;;;;;;;;;;;4980499;28;20422;-71
2023/02/07 07:51:41;;;;;;;;;;;;;;;;;;4967123;28;20496;-71
2023/02/07 07:54:07;;;;;;;;;;;;;;;;;;4960517;28;19914;-71
2023/02/07 07:56:34;;;;;;;;;;;;;;;;;;4970890;28;19909;-73
2023/02/07 07:59:00;;;;;;;;;;;;;;;;;;4984164;28;19995;-71
2023/02/07 08:01:26;;;;;;;;;;;;;;;;;;4961619;28;19917;-71
2023/02/07 08:03:52;;;;;;;;;;;;;;;;;;4965549;28;20517;-71
2023/02/07 08:06:18;;;;;;;;;;;;;;;;;;4982262;28;19917;-72
2023/02/07 08:08:44;;;;;;;;;;;;;;;;;;4987051;28;19963;-72
2023/02/07 08:11:10;;;;;;;;;;;;;;;;;;4982147;28;19924;-71
2023/02/07 08:13:35;;;;;;;;;;;;;;;;;;4987895;28;20409;-72
2023/02/07 08:16:01;;;;;;;;;;;;;;;;;;4986229;28;19921;-71
2023/02/07 08:18:28;;;;;;;;;;;;;;;;;;4984809;28;19924;-71
2023/02/07 08:20:54;;;;;;;;;;;;;;;;;;4985484;28;19967;-71
2023/02/07 08:23:20;;;;;;;;;;;;;;;;;;4986016;28;20052;-71
2023/02/07 08:25:45;;;;;;;;;;;;;;;;;;4990671;28;19921;-72
2023/02/07 08:28:11;;;;;;;;;;;;;;;;;;4984195;28;19968;-71
2023/02/07 08:30:37;;;;;;;;;;;;;;;;;;4983562;28;19913;-72
2023/02/07 08:33:03;;;;;;;;;;;;;;;;;;4967439;28;19917;-72
2023/02/07 08:35:29;;;;;;;;;;;;;;;;;;4982909;28;19917;-71
2023/02/07 08:37:57;;;;;;;;;;;;;;;;;;4968426;28;19920;-72
2023/02/07 08:40:23;;;;;;;;;;;;;;;;;;4984854;28;19917;-71
2023/02/07 08:42:49;;;;;;;;;;;;;;;;;;4986674;28;20362;-71
2023/02/07 08:45:16;;;;;;;;;;;;;;;;;;4963711;28;20176;-72
2023/02/07 08:47:42;;;;;;;;;;;;;;;;;;4966413;28;20382;-71
2023/02/07 08:50:08;;;;;;;;;;;;;;;;;;4965752;28;19913;-71
2023/02/07 08:52:34;;;;;;;;;;;;;;;;;;4967523;28;19917;-71
2023/02/07 08:55:00;;;;;;;;;;;;;;;;;;4987082;28;19927;-71
2023/02/07 08:57:26;;;;;;;;;;;;;;;;;;4983215;28;19921;-71
2023/02/07 08:59:52;;;;;;;;;;;;;;;;;;4983119;28;19929;-71
2023/02/07 09:02:18;;;;;;;;;;;;;;;;;;4977657;28;19987;-71
2023/02/07 09:04:44;;;;;;;;;;;;;;;;;;4986665;28;20459;-71
2023/02/07 09:07:10;;;;;;;;;;;;;;;;;;4965879;28;20313;-71
2023/02/07 09:09:36;;;;;;;;;;;;;;;;;;4969407;28;19940;-71
2023/02/07 09:12:02;;;;;;;;;;;;;;;;;;4985994;28;19920;-71
2023/02/07 09:14:28;;;;;;;;;;;;;;;;;;4967390;28;19957;-71
2023/02/07 09:16:54;;;;;;;;;;;;;;;;;;4982417;28;19925;-72
2023/02/07 09:19:20;;;;;;;;;;;;;;;;;;4981537;28;19914;-72
2023/02/07 09:21:46;;;;;;;;;;;;;;;;;;4984575;28;19913;-72
2023/02/07 09:24:12;;;;;;;;;;;;;;;;;;4979871;28;20439;-71
2023/02/07 09:26:40;;;;;;;;;;;;;;;;;;4982738;28;20427;-72
2023/02/07 09:29:06;;;;;;;;;;;;;;;;;;4980259;28;20006;-73
2023/02/07 09:31:32;;;;;;;;;;;;;;;;;;4984869;28;19913;-72
2023/02/07 09:33:58;;;;;;;;;;;;;;;;;;4981491;28;19972;-72
2023/02/07 09:36:25;;;;;;;;;;;;;;;;;;4982265;28;20020;-72
2023/02/07 09:38:51;;;;;;;;;;;;;;;;;;4986391;28;19995;-71
2023/02/07 09:41:17;;;;;;;;;;;;;;;;;;4978208;28;20423;-71
2023/02/07 09:43:42;;;;;;;;;;;;;;;;;;4987040;28;19920;-71
2023/02/07 09:46:08;;;;;;;;;;;;;;;;;;4969276;28;20004;-71
2023/02/07 09:48:36;;;;;;;;;;;;;;;;;;4988958;28;19948;-72
2023/02/07 09:51:02;;;;;;;;;;;;;;;;;;4986948;28;19920;-71
2023/02/07 09:53:28;;;;;;;;;;;;;;;;;;4966970;28;19956;-72
2023/02/07 09:55:54;;;;;;;;;;;;;;;;;;4988076;28;20040;-72
2023/02/07 09:58:20;;;;;;;;;;;;;;;;;;4982144;28;19913;-72
2023/02/07 10:00:46;;;;;;;;;;;;;;;;;;4986692;28;19940;-71
2023/02/07 10:03:12;;;;;;;;;;;;;;;;;;4985053;28;19913;-72
2023/02/07 10:05:38;;;;;;;;;;;;;;;;;;4968426;28;20048;-72
2023/02/07 10:08:04;;;;;;;;;;;;;;;;;;4983919;28;21057;-71
2023/02/07 10:10:30;;;;;;;;;;;;;;;;;;4964822;28;20415;-72
2023/02/07 10:12:56;;;;;;;;;;;;;;;;;;4971637;28;19924;-72
2023/02/07 10:15:23;;;;;;;;;;;;;;;;;;4985519;28;19925;-71
2023/02/07 10:17:49;;;;;;;;;;;;;;;;;;4985376;28;20326;-72
2023/02/07 10:20:15;;;;;;;;;;;;;;;;;;4968361;28;20481;-73
2023/02/07 10:22:41;;;;;;;;;;;;;;;;;;4986307;28;20011;-72
2023/02/07 10:25:07;;;;;;;;;;;;;;;;;;4961516;28;20293;-73
2023/02/07 10:27:33;;;;;;;;;;;;;;;;;;4984936;28;20327;-72
2023/02/07 10:29:59;;;;;;;;;;;;;;;;;;4988490;28;19921;-72
2023/02/07 10:32:25;;;;;;;;;;;;;;;;;;4958921;28;19998;-72
2023/02/07 10:34:52;;;;;;;;;;;;;;;;;;4988135;28;20291;-71
2023/02/07 10:37:18;;;;;;;;;;;;;;;;;;4982672;28;19913;-72
2023/02/07 10:39:44;;;;;;;;;;;;;;;;;;4967187;28;19913;-72
2023/02/07 10:42:10;;;;;;;;;;;;;;;;;;4988424;28;20434;-72
2023/02/07 10:44:36;;;;;;;;;;;;;;;;;;4987034;28;19925;-72
2023/02/07 10:47:02;;;;;;;;;;;;;;;;;;4986055;28;19917;-72
2023/02/07 10:49:28;;;;;;;;;;;;;;;;;;4970943;28;19917;-71
2023/02/07 10:51:54;;;;;;;;;;;;;;;;;;4960458;28;19943;-72
2023/02/07 10:54:23;;;;;;;;;;;;;;;;;;4986102;28;19920;-72
2023/02/07 10:56:49;;;;;;;;;;;;;;;;;;4971613;28;20007;-71
2023/02/07 10:59:15;;;;;;;;;;;;;;;;;;4985655;28;19913;-72
2023/02/07 11:01:41;;;;;;;;;;;;;;;;;;4986171;28;20601;-71
2023/02/07 11:04:07;;;;;;;;;;;;;;;;;;4987002;28;19912;-71
2023/02/07 11:06:33;;;;;;;;;;;;;;;;;;4987574;28;20355;-71
2023/02/07 11:08:59;;;;;;;;;;;;;;;;;;4969259;28;19960;-71
2023/02/07 11:11:25;;;;;;;;;;;;;;;;;;4965185;28;20000;-71
2023/02/07 11:13:52;;;;;;;;;;;;;;;;;;4986509;28;19920;-73
2023/02/07 11:16:18;;;;;;;;;;;;;;;;;;4964872;28;20028;-71
2023/02/07 11:18:44;;;;;;;;;;;;;;;;;;4987535;28;19978;-71
2023/02/07 11:21:10;;;;;;;;;;;;;;;;;;4966633;28;19913;-71
2023/02/07 11:23:36;;;;;;;;;;;;;;;;;;4988643;28;20455;-71
2023/02/07 11:26:02;;;;;;;;;;;;;;;;;;4970280;28;20343;-71
2023/02/07 11:28:29;;;;;;;;;;;;;;;;;;4987205;28;20043;-71
2023/02/07 11:30:55;;;;;;;;;;;;;;;;;;4992206;28;20031;-71
2023/02/07 11:33:22;;;;;;;;;;;;;;;;;;4991327;28;20453;-71
2023/02/07 11:35:48;;;;;;;;;;;;;;;;;;4986473;28;19917;-71
2023/02/07 11:38:15;;;;;;;;;;;;;;;;;;4962955;28;19921;-71
2023/02/07 11:40:41;;;;;;;;;;;;;;;;;;4982864;28;19918;-71
2023/02/07 11:43:07;;;;;;;;;;;;;;;;;;4983052;28;19924;-71
2023/02/07 11:45:35;;;;;;;;;;;;;;;;;;4984467;28;20470;-71
2023/02/07 11:48:02;;;;;;;;;;;;;;;;;;4965543;28;19918;-71
2023/02/07 11:50:28;;;;;;;;;;;;;;;;;;4963416;28;19993;-71
2023/02/07 11:52:54;;;;;;;;;;;;;;;;;;4982294;28;19917;-71
2023/02/07 11:55:20;;;;;;;;;;;;;;;;;;4964763;28;19917;-72
2023/02/07 11:57:46;;;;;;;;;;;;;;;;;;4983750;28;20111;-71
2023/02/07 12:00:12;;;;;;;;;;;;;;;;;;4983010;28;20268;-74
2023/02/07 12:02:38;;;;;;;;;;;;;;;;;;4965378;28;20389;-71
2023/02/07 12:05:04;;;;;;;;;;;;;;;;;;4962918;28;19917;-71
2023/02/07 12:07:33;;;;;;;;;;;;;;;;;;4964966;28;19941;-73
2023/02/07 12:09:59;;;;;;;;;;;;;;;;;;4984683;28;19969;-72
2023/02/07 12:12:25;;;;;;;;;;;;;;;;;;4980342;28;20001;-71
2023/02/07 12:14:51;;;;;;;;;;;;;;;;;;4963558;28;19917;-72
2023/02/07 12:17:17;;;;;;;;;;;;;;;;;;4921064;28;1243492;-72
2023/02/07 12:19:43;;;;;;;;;;;;;;;;;;4985412;28;19921;-72
2023/02/07 12:22:09;;;;;;;;;;;;;;;;;;4982201;28;20004;-72
2023/02/07 12:24:35;;;;;;;;;;;;;;;;;;4965237;28;20543;-72
2023/02/07 12:27:01;;;;;;;;;;;;;;;;;;4986862;28;19925;-72
2023/02/07 12:29:29;;;;;;;;;;;;;;;;;;4981832;28;19964;-72
2023/02/07 12:31:55;;;;;;;;;;;;;;;;;;4967573;28;20355;-72
2023/02/07 12:34:21;;;;;;;;;;;;;;;;;;4964693;28;19971;-72
2023/02/07 12:36:47;;;;;;;;;;;;;;;;;;4966146;28;20433;-72
2023/02/07 12:39:13;;;;;;;;;;;;;;;;;;4983682;28;20018;-72
2023/02/07 12:41:39;;;;;;;;;;;;;;;;;;4984052;28;20537;-72
2023/02/07 12:44:05;;;;;;;;;;;;;;;;;;4963069;28;20368;-70
2023/02/07 12:46:31;;;;;;;;;;;;;;;;;;4979776;28;20349;-71
2023/02/07 12:48:57;;;;;;;;;;;;;;;;;;4964991;28;20025;-71
2023/02/07 12:51:23;;;;;;;;;;;;;;;;;;4963044;28;21597;-71
2023/02/07 12:53:49;;;;;;;;;;;;;;;;;;4986278;28;19947;-71
2023/02/07 12:56:15;;;;;;;;;;;;;;;;;;4981863;28;20302;-71
2023/02/07 12:58:41;;;;;;;;;;;;;;;;;;4966096;28;20066;-71
2023/02/07 13:01:07;;;;;;;;;;;;;;;;;;4979989;28;19920;-71
2023/02/07 13:03:32;;;;;;;;;;;;;;;;;;4984509;28;19940;-70
2023/02/07 13:06:00;;;;;;;;;;;;;;;;;;4985106;28;19921;-71
2023/02/07 13:08:26;;;;;;;;;;;;;;;;;;4960776;28;20716;-71
2023/02/07 13:10:52;;;;;;;;;;;;;;;;;;4984153;28;19917;-71
2023/02/07 13:13:18;;;;;;;;;;;;;;;;;;4978710;28;19936;-71
2023/02/07 13:15:44;;;;;;;;;;;;;;;;;;4982897;28;19925;-71
2023/02/07 13:18:09;;;;;;;;;;;;;;;;;;4981741;28;19917;-72
2023/02/07 13:20:35;;;;;;;;;;;;;;;;;;4982025;28;19913;-71
2023/02/07 13:23:01;;;;;;;;;;;;;;;;;;4983347;28;19913;-70
2023/02/07 13:25:27;;;;;;;;;;;;;;;;;;4984740;28;19917;-67
2023/02/07 13:27:54;;;;;;;;;;;;;;;;;;4983736;28;19963;-71
2023/02/07 13:30:20;;;;;;;;;;;;;;;;;;4962920;28;19914;-70
2023/02/07 13:32:46;;;;;;;;;;;;;;;;;;4983466;28;19917;-70
2023/02/07 13:35:12;;;;;;;;;;;;;;;;;;4960238;28;20552;-70
2023/02/07 13:37:39;;;;;;;;;;;;;;;;;;4983192;28;19991;-74
2023/02/07 13:40:05;;;;;;;;;;;;;;;;;;4963627;28;19956;-70
2023/02/07 13:42:31;;;;;;;;;;;;;;;;;;4981484;28;19919;-71
2023/02/07 13:44:57;;;;;;;;;;;;;;;;;;4981928;28;19923;-71
2023/02/07 13:47:23;;;;;;;;;;;;;;;;;;4980702;28;22460;-71
2023/02/07 13:49:49;;;;;;;;;;;;;;;;;;4963934;28;20524;-70
2023/02/07 13:52:15;;;;;;;;;;;;;;;;;;4980312;28;20335;-71
2023/02/07 13:54:41;;;;;;;;;;;;;;;;;;4983015;28;19913;-71
2023/02/07 13:59:51;;;;;;;;;;;;;;;;;;4981692;28;19915;-71
2023/02/07 14:02:17;;;;;;;;;;;;;;;;;;4981781;28;19913;-71
2023/02/07 14:04:43;;;;;;;;;;;;;;;;;;4985599;28;20323;-71
2023/02/07 14:07:10;;;;;;;;;;;;;;;;;;4958805;28;20039;-71
2023/02/07 14:09:36;;;;;;;;;;;;;;;;;;4964246;28;19910;-71
2023/02/07 14:12:03;;;;;;;;;;;;;;;;;;4983650;28;19956;-72
2023/02/07 14:14:29;;;;;;;;;;;;;;;;;;4965978;28;19947;-72
2023/02/07 14:16:55;;;;;;;;;;;;;;;;;;4958790;28;20470;-71
2023/02/07 14:19:21;;;;;;;;;;;;;;;;;;4979800;28;19921;-71
2023/02/07 14:21:47;;;;;;;;;;;;;;;;;;4983154;28;19932;-71
2023/02/07 14:24:13;;;;;;;;;;;;;;;;;;4962329;28;19924;-71
2023/02/07 14:26:39;;;;;;;;;;;;;;;;;;4963847;28;19961;-71
2023/02/07 14:29:05;;;;;;;;;;;;;;;;;;4979502;28;20219;-71
2023/02/07 14:31:31;;;;;;;;;;;;;;;;;;4966781;28;19921;-71
2023/02/07 14:33:57;;;;;;;;;;;;;;;;;;4982446;28;20294;-71
2023/02/07 14:36:23;;;;;;;;;;;;;;;;;;4979287;28;19914;-71
2023/02/07 14:38:48;;;;;;;;;;;;;;;;;;4979900;28;19956;-72
2023/02/07 14:41:15;;;;;;;;;;;;;;;;;;4962030;28;19913;-71
2023/02/07 14:43:40;;;;;;;;;;;;;;;;;;4964461;28;19914;-71
2023/02/07 14:46:07;;;;;;;;;;;;;;;;;;4962551;28;20277;-71
2023/02/07 14:48:33;;;;;;;;;;;;;;;;;;4984318;28;19917;-72
2023/02/07 14:50:59;;;;;;;;;;;;;;;;;;4979908;28;19921;-71
2023/02/07 14:53:25;;;;;;;;;;;;;;;;;;4960778;28;19916;-71
2023/02/07 14:55:51;;;;;;;;;;;;;;;;;;4983019;28;19924;-70
2023/02/07 14:58:17;;;;;;;;;;;;;;;;;;4962730;28;19913;-73
2023/02/07 15:00:43;;;;;;;;;;;;;;;;;;4960730;28;19914;-71
2023/02/07 15:03:10;;;;;;;;;;;;;;;;;;4978570;28;20307;-72
2023/02/07 15:05:36;;;;;;;;;;;;;;;;;;4976936;28;20383;-72
2023/02/07 15:08:02;;;;;;;;;;;;;;;;;;4978239;28;19955;-72
2023/02/07 15:10:28;;;;;;;;;;;;;;;;;;4958058;28;19928;-72
2023/02/07 15:12:54;;;;;;;;;;;;;;;;;;4959317;28;20011;-71
2023/02/07 15:15:20;;;;;;;;;;;;;;;;;;4960279;28;20260;-72
2023/02/07 15:17:46;;;;;;;;;;;;;;;;;;4960898;28;20363;-71
2023/02/07 15:20:12;;;;;;;;;;;;;;;;;;4961614;28;19921;-72
2023/02/07 15:22:38;;;;;;;;;;;;;;;;;;4962723;28;19981;-72
2023/02/07 15:25:04;;;;;;;;;;;;;;;;;;4959813;28;20395;-71
2023/02/07 15:27:30;;;;;;;;;;;;;;;;;;4962695;28;19914;-71
2023/02/07 15:29:56;;;;;;;;;;;;;;;;;;4980633;28;20011;-72
2023/02/07 15:32:22;;;;;;;;;;;;;;;;;;4977200;28;19914;-74
2023/02/07 15:34:48;;;;;;;;;;;;;;;;;;4958950;28;19913;-73
2023/02/07 15:37:14;;;;;;;;;;;;;;;;;;4976778;28;19953;-74
2023/02/07 15:39:40;;;;;;;;;;;;;;;;;;4963885;28;19913;-74
2023/02/07 15:42:08;;;;;;;;;;;;;;;;;;4959703;28;20004;-73
2023/02/07 15:44:34;;;;;;;;;;;;;;;;;;4980404;28;21026;-73
2023/02/07 15:47:00;;;;;;;;;;;;;;;;;;4980706;28;20341;-73
2023/02/07 15:49:26;;;;;;;;;;;;;;;;;;4979056;28;19927;-73
2023/02/07 15:51:52;;;;;;;;;;;;;;;;;;4979776;28;20238;-74
2023/02/07 15:54:18;;;;;;;;;;;;;;;;;;4959778;28;20430;-73
2023/02/07 15:56:43;;;;;;;;;;;;;;;;;;4959371;28;20023;-74
2023/02/07 15:59:09;;;;;;;;;;;;;;;;;;4978344;28;19913;-74
2023/02/07 16:01:38;;;;;;;;;;;;;;;;;;4977682;28;20237;-75
2023/02/07 16:04:04;;;;;;;;;;;;;;;;;;4961240;28;19917;-74
2023/02/07 16:06:31;;;;;;;;;;;;;;;;;;4962467;28;19917;-74
2023/02/07 16:08:57;;;;;;;;;;;;;;;;;;4982183;28;19920;-74
2023/02/07 16:11:23;;;;;;;;;;;;;;;;;;4980137;28;20957;-73
2023/02/07 16:13:49;;;;;;;;;;;;;;;;;;4966279;28;19909;-75
2023/02/07 16:16:15;;;;;;;;;;;;;;;;;;4964820;28;19991;-74
2023/02/07 16:18:41;;;;;;;;;;;;;;;;;;4970489;28;19918;-74
2023/02/07 16:21:07;;;;;;;;;;;;;;;;;;4984253;28;19984;-74
2023/02/07 16:23:33;;;;;;;;;;;;;;;;;;4986169;28;20024;-74
2023/02/07 16:26:01;;;;;;;;;;;;;;;;;;4981567;28;20456;-73
2023/02/07 16:28:27;;;;;;;;;;;;;;;;;;4982687;28;20648;-74
2023/02/07 16:30:53;;;;;;;;;;;;;;;;;;4981772;28;20012;-74
2023/02/07 16:33:19;;;;;;;;;;;;;;;;;;4980804;28;20430;-72
2023/02/07 16:35:45;;;;;;;;;;;;;;;;;;4983821;28;20035;-74
2023/02/07 16:38:11;;;;;;;;;;;;;;;;;;4963920;28;21158;-74
2023/02/07 16:40:37;;;;;;;;;;;;;;;;;;4984436;28;19913;-74
2023/02/07 16:43:03;;;;;;;;;;;;;;;;;;4983596;28;19917;-74
2023/02/07 16:45:31;;;;;;;;;;;;;;;;;;4963039;28;20020;-74